sensor_id;sensor_type;location;lat;lon;timestamp;P1;P2;P0
32503;PMS5003;18953;45.930;13.640;2023-05-10T00:04:53;5;5;
32503;PMS5003;18953;45.930;13.640;2023-05-10T00:10:10;5;5;
32503;PMS5003;18953;45.930;13.640;2023-05-10T00:15:26;5;5;
32503;PMS5003;18953;45.930;13.640;2023-05-10T00:20:42;5;5;
32503;PMS5003;18953;45.930;13.640;2023-05-10T00:25:58;9;8;
32503;PMS5003;18953;45.930;13.640;2023-05-10T00:31:15;5;5;
32503;PMS5003;18953;45.930;13.640;2023-05-10T00:36:31;6;5;
32503;PMS5003;18953;45.930;13.640;2023-05-10T00:41:48;6;5;
32503;PMS5003;18953;45.930;13.640;2023-05-10T00:47:04;7;5;
32503;PMS5003;18953;45.930;13.640;2023-05-10T00:52:20;6;6;
32503;PMS5003;18953;45.930;13.640;2023-05-10T00:57:37;5;5;
32503;PMS5003;18953;45.930;13.640;2023-05-10T01:02:53;3;3;
32503;PMS5003;18953;45.930;13.640;2023-05-10T01:08:09;6;6;
32503;PMS5003;18953;45.930;13.640;2023-05-10T01:13:30;5;5;
32503;PMS5003;18953;45.930;13.640;2023-05-10T01:18:42;5;5;
32503;PMS5003;18953;45.930;13.640;2023-05-10T01:24:06;5;5;
32503;PMS5003;18953;45.930;13.640;2023-05-10T01:29:19;6;6;
32503;PMS5003;18953;45.930;13.640;2023-05-10T01:34:34;5;5;
32503;PMS5003;18953;45.930;13.640;2023-05-10T01:39:49;4;4;
32503;PMS5003;18953;45.930;13.640;2023-05-10T01:45:07;5;5;
32503;PMS5003;18953;45.930;13.640;2023-05-10T01:50:22;4;4;
32503;PMS5003;18953;45.930;13.640;2023-05-10T01:55:39;5;5;
32503;PMS5003;18953;45.930;13.640;2023-05-10T02:00:53;7;5;
32503;PMS5003;18953;45.930;13.640;2023-05-10T02:06:10;5;5;
32503;PMS5003;18953;45.930;13.640;2023-05-10T02:11:26;6;6;
32503;PMS5003;18953;45.930;13.640;2023-05-10T02:16:42;5;5;
32503;PMS5003;18953;45.930;13.640;2023-05-10T02:21:59;8;7;
32503;PMS5003;18953;45.930;13.640;2023-05-10T02:27:15;8;6;
32503;PMS5003;18953;45.930;13.640;2023-05-10T02:32:31;7;6;
32503;PMS5003;18953;45.930;13.640;2023-05-10T02:37:48;6;6;
32503;PMS5003;18953;45.930;13.640;2023-05-10T02:43:04;10;7;
32503;PMS5003;18953;45.930;13.640;2023-05-10T02:48:20;8;7;
32503;PMS5003;18953;45.930;13.640;2023-05-10T02:53:37;8;7;
32503;PMS5003;18953;45.930;13.640;2023-05-10T02:58:53;8;7;
32503;PMS5003;18953;45.930;13.640;2023-05-10T03:04:09;8;6;
32503;PMS5003;18953;45.930;13.640;2023-05-10T03:09:26;6;6;
32503;PMS5003;18953;45.930;13.640;2023-05-10T03:14:45;7;5;
32503;PMS5003;18953;45.930;13.640;2023-05-10T03:20:04;7;6;
32503;PMS5003;18953;45.930;13.640;2023-05-10T03:25:15;7;6;
32503;PMS5003;18953;45.930;13.640;2023-05-10T03:30:31;7;6;
32503;PMS5003;18953;45.930;13.640;2023-05-10T03:35:48;8;7;
32503;PMS5003;18953;45.930;13.640;2023-05-10T03:41:04;6;5;
32503;PMS5003;18953;45.930;13.640;2023-05-10T03:46:20;7;7;
32503;PMS5003;18953;45.930;13.640;2023-05-10T03:51:37;11;9;
32503;PMS5003;18953;45.930;13.640;2023-05-10T03:56:53;7;6;
32503;PMS5003;18953;45.930;13.640;2023-05-10T04:02:09;7;7;
32503;PMS5003;18953;45.930;13.640;2023-05-10T04:07:26;9;9;
32503;PMS5003;18953;45.930;13.640;2023-05-10T04:12:42;8;8;
32503;PMS5003;18953;45.930;13.640;2023-05-10T04:17:58;8;7;
32503;PMS5003;18953;45.930;13.640;2023-05-10T04:23:15;11;10;
32503;PMS5003;18953;45.930;13.640;2023-05-10T04:28:31;7;7;
32503;PMS5003;18953;45.930;13.640;2023-05-10T04:33:48;9;8;
32503;PMS5003;18953;45.930;13.640;2023-05-10T04:39:04;8;8;
32503;PMS5003;18953;45.930;13.640;2023-05-10T04:44:20;10;9;
32503;PMS5003;18953;45.930;13.640;2023-05-10T04:49:37;9;8;
32503;PMS5003;18953;45.930;13.640;2023-05-10T04:54:53;10;8;
32503;PMS5003;18953;45.930;13.640;2023-05-10T05:00:10;10;8;
32503;PMS5003;18953;45.930;13.640;2023-05-10T05:05:26;14;12;
32503;PMS5003;18953;45.930;13.640;2023-05-10T05:10:42;9;8;
32503;PMS5003;18953;45.930;13.640;2023-05-10T05:16:00;10;10;
32503;PMS5003;18953;45.930;13.640;2023-05-10T05:21:15;10;8;
32503;PMS5003;18953;45.930;13.640;2023-05-10T05:26:31;11;11;
32503;PMS5003;18953;45.930;13.640;2023-05-10T05:31:48;13;10;
32503;PMS5003;18953;45.930;13.640;2023-05-10T05:37:04;9;9;
32503;PMS5003;18953;45.930;13.640;2023-05-10T05:42:20;9;9;
32503;PMS5003;18953;45.930;13.640;2023-05-10T05:47:37;12;9;
32503;PMS5003;18953;45.930;13.640;2023-05-10T05:52:53;13;12;
32503;PMS5003;18953;45.930;13.640;2023-05-10T05:58:10;43;35;
32503;PMS5003;18953;45.930;13.640;2023-05-10T06:03:26;9;8;
32503;PMS5003;18953;45.930;13.640;2023-05-10T06:08:42;12;10;
32503;PMS5003;18953;45.930;13.640;2023-05-10T06:13:59;10;10;
32503;PMS5003;18953;45.930;13.640;2023-05-10T06:19:15;8;8;
32503;PMS5003;18953;45.930;13.640;2023-05-10T06:24:32;8;8;
32503;PMS5003;18953;45.930;13.640;2023-05-10T06:29:48;8;8;
32503;PMS5003;18953;45.930;13.640;2023-05-10T06:35:05;9;9;
32503;PMS5003;18953;45.930;13.640;2023-05-10T06:40:21;8;8;
32503;PMS5003;18953;45.930;13.640;2023-05-10T06:45:37;10;10;
32503;PMS5003;18953;45.930;13.640;2023-05-10T06:50:53;10;10;
32503;PMS5003;18953;45.930;13.640;2023-05-10T06:56:10;10;9;
32503;PMS5003;18953;45.930;13.640;2023-05-10T07:01:26;12;12;
32503;PMS5003;18953;45.930;13.640;2023-05-10T07:06:43;13;12;
32503;PMS5003;18953;45.930;13.640;2023-05-10T07:11:59;17;15;
32503;PMS5003;18953;45.930;13.640;2023-05-10T07:17:15;16;14;
32503;PMS5003;18953;45.930;13.640;2023-05-10T07:22:32;14;10;
32503;PMS5003;18953;45.930;13.640;2023-05-10T07:27:48;10;9;
32503;PMS5003;18953;45.930;13.640;2023-05-10T07:33:04;10;9;
32503;PMS5003;18953;45.930;13.640;2023-05-10T07:38:21;12;10;
32503;PMS5003;18953;45.930;13.640;2023-05-10T07:43:37;12;10;
32503;PMS5003;18953;45.930;13.640;2023-05-10T07:48:53;11;11;
32503;PMS5003;18953;45.930;13.640;2023-05-10T07:54:10;30;25;
32503;PMS5003;18953;45.930;13.640;2023-05-10T07:59:26;12;11;
32503;PMS5003;18953;45.930;13.640;2023-05-10T08:04:43;10;10;
32503;PMS5003;18953;45.930;13.640;2023-05-10T08:09:59;14;12;
32503;PMS5003;18953;45.930;13.640;2023-05-10T08:15:15;9;8;
32503;PMS5003;18953;45.930;13.640;2023-05-10T08:20:31;12;11;
32503;PMS5003;18953;45.930;13.640;2023-05-10T08:25:48;11;11;
32503;PMS5003;18953;45.930;13.640;2023-05-10T08:31:04;11;11;
32503;PMS5003;18953;45.930;13.640;2023-05-10T08:36:21;12;11;
32503;PMS5003;18953;45.930;13.640;2023-05-10T08:41:37;12;11;
32503;PMS5003;18953;45.930;13.640;2023-05-10T08:46:53;12;11;
32503;PMS5003;18953;45.930;13.640;2023-05-10T08:52:10;12;10;
32503;PMS5003;18953;45.930;13.640;2023-05-10T08:57:26;12;11;
32503;PMS5003;18953;45.930;13.640;2023-05-10T09:02:42;11;10;
32503;PMS5003;18953;45.930;13.640;2023-05-10T09:07:59;12;12;
32503;PMS5003;18953;45.930;13.640;2023-05-10T09:13:15;12;11;
32503;PMS5003;18953;45.930;13.640;2023-05-10T09:18:31;13;13;
32503;PMS5003;18953;45.930;13.640;2023-05-10T09:23:48;13;13;
32503;PMS5003;18953;45.930;13.640;2023-05-10T09:29:04;14;12;
32503;PMS5003;18953;45.930;13.640;2023-05-10T09:34:22;13;13;
32503;PMS5003;18953;45.930;13.640;2023-05-10T09:39:37;20;17;
32503;PMS5003;18953;45.930;13.640;2023-05-10T09:44:53;14;11;
32503;PMS5003;18953;45.930;13.640;2023-05-10T09:50:09;14;13;
32503;PMS5003;18953;45.930;13.640;2023-05-10T09:55:26;12;12;
32503;PMS5003;18953;45.930;13.640;2023-05-10T10:00:43;15;13;
32503;PMS5003;18953;45.930;13.640;2023-05-10T10:05:58;12;11;
32503;PMS5003;18953;45.930;13.640;2023-05-10T10:11:15;11;11;
32503;PMS5003;18953;45.930;13.640;2023-05-10T10:16:32;13;12;
32503;PMS5003;18953;45.930;13.640;2023-05-10T10:21:48;14;14;
32503;PMS5003;18953;45.930;13.640;2023-05-10T10:27:07;18;15;
32503;PMS5003;18953;45.930;13.640;2023-05-10T10:32:22;14;14;
32503;PMS5003;18953;45.930;13.640;2023-05-10T10:37:44;22;18;
32503;PMS5003;18953;45.930;13.640;2023-05-10T10:42:53;19;18;
32503;PMS5003;18953;45.930;13.640;2023-05-10T10:48:25;16;16;
32503;PMS5003;18953;45.930;13.640;2023-05-10T10:53:26;18;16;
32503;PMS5003;18953;45.930;13.640;2023-05-10T10:58:48;19;18;
32503;PMS5003;18953;45.930;13.640;2023-05-10T11:04:31;22;20;
32503;PMS5003;18953;45.930;13.640;2023-05-10T11:09:15;18;16;
32503;PMS5003;18953;45.930;13.640;2023-05-10T11:14:32;20;18;
32503;PMS5003;18953;45.930;13.640;2023-05-10T11:20:02;21;18;
32503;PMS5003;18953;45.930;13.640;2023-05-10T11:25:04;24;21;
32503;PMS5003;18953;45.930;13.640;2023-05-10T11:30:21;23;22;
32503;PMS5003;18953;45.930;13.640;2023-05-10T11:35:37;24;22;
32503;PMS5003;18953;45.930;13.640;2023-05-10T11:40:53;22;21;
32503;PMS5003;18953;45.930;13.640;2023-05-10T11:46:10;23;22;
32503;PMS5003;18953;45.930;13.640;2023-05-10T11:51:26;24;23;
32503;PMS5003;18953;45.930;13.640;2023-05-10T11:56:42;23;22;
32503;PMS5003;18953;45.930;13.640;2023-05-10T12:01:59;22;21;
32503;PMS5003;18953;45.930;13.640;2023-05-10T12:07:15;25;23;
32503;PMS5003;18953;45.930;13.640;2023-05-10T12:12:35;23;22;
32503;PMS5003;18953;45.930;13.640;2023-05-10T12:17:48;22;21;
32503;PMS5003;18953;45.930;13.640;2023-05-10T12:23:04;25;20;
32503;PMS5003;18953;45.930;13.640;2023-05-10T12:28:20;27;24;
32503;PMS5003;18953;45.930;13.640;2023-05-10T12:33:37;25;23;
32503;PMS5003;18953;45.930;13.640;2023-05-10T12:38:59;22;22;
32503;PMS5003;18953;45.930;13.640;2023-05-10T12:44:11;26;21;
32503;PMS5003;18953;45.930;13.640;2023-05-10T12:49:27;20;19;
32503;PMS5003;18953;45.930;13.640;2023-05-10T12:54:43;22;21;
32503;PMS5003;18953;45.930;13.640;2023-05-10T13:00:00;20;20;
32503;PMS5003;18953;45.930;13.640;2023-05-10T13:05:16;24;21;
32503;PMS5003;18953;45.930;13.640;2023-05-10T13:10:33;24;24;
32503;PMS5003;18953;45.930;13.640;2023-05-10T13:15:49;25;24;
32503;PMS5003;18953;45.930;13.640;2023-05-10T13:21:06;26;23;
32503;PMS5003;18953;45.930;13.640;2023-05-10T13:26:22;26;23;
32503;PMS5003;18953;45.930;13.640;2023-05-10T13:31:38;21;21;
32503;PMS5003;18953;45.930;13.640;2023-05-10T13:36:54;24;22;
32503;PMS5003;18953;45.930;13.640;2023-05-10T13:42:11;21;20;
32503;PMS5003;18953;45.930;13.640;2023-05-10T13:47:27;20;20;
32503;PMS5003;18953;45.930;13.640;2023-05-10T13:52:44;21;20;
32503;PMS5003;18953;45.930;13.640;2023-05-10T13:58:00;22;22;
32503;PMS5003;18953;45.930;13.640;2023-05-10T14:03:17;21;20;
32503;PMS5003;18953;45.930;13.640;2023-05-10T14:08:33;23;22;
32503;PMS5003;18953;45.930;13.640;2023-05-10T14:13:50;29;27;
32503;PMS5003;18953;45.930;13.640;2023-05-10T14:19:06;23;20;
32503;PMS5003;18953;45.930;13.640;2023-05-10T14:24:23;22;21;
32503;PMS5003;18953;45.930;13.640;2023-05-10T14:29:39;21;20;
32503;PMS5003;18953;45.930;13.640;2023-05-10T14:34:55;25;22;
32503;PMS5003;18953;45.930;13.640;2023-05-10T14:40:12;20;19;
32503;PMS5003;18953;45.930;13.640;2023-05-10T14:45:28;25;23;
32503;PMS5003;18953;45.930;13.640;2023-05-10T14:50:44;24;23;
32503;PMS5003;18953;45.930;13.640;2023-05-10T14:56:01;22;20;
32503;PMS5003;18953;45.930;13.640;2023-05-10T15:01:17;21;21;
32503;PMS5003;18953;45.930;13.640;2023-05-10T15:06:34;23;22;
32503;PMS5003;18953;45.930;13.640;2023-05-10T15:11:50;21;19;
32503;PMS5003;18953;45.930;13.640;2023-05-10T15:17:06;20;19;
32503;PMS5003;18953;45.930;13.640;2023-05-10T15:22:23;20;19;
32503;PMS5003;18953;45.930;13.640;2023-05-10T15:27:39;22;21;
32503;PMS5003;18953;45.930;13.640;2023-05-10T15:32:56;21;20;
32503;PMS5003;18953;45.930;13.640;2023-05-10T15:38:12;25;24;
32503;PMS5003;18953;45.930;13.640;2023-05-10T15:43:28;23;22;
32503;PMS5003;18953;45.930;13.640;2023-05-10T15:48:45;39;33;
32503;PMS5003;18953;45.930;13.640;2023-05-10T15:54:01;25;23;
32503;PMS5003;18953;45.930;13.640;2023-05-10T15:59:17;28;27;
32503;PMS5003;18953;45.930;13.640;2023-05-10T16:04:34;24;23;
32503;PMS5003;18953;45.930;13.640;2023-05-10T16:09:50;25;24;
32503;PMS5003;18953;45.930;13.640;2023-05-10T16:15:08;26;25;
32503;PMS5003;18953;45.930;13.640;2023-05-10T16:20:23;28;26;
32503;PMS5003;18953;45.930;13.640;2023-05-10T16:25:40;24;21;
32503;PMS5003;18953;45.930;13.640;2023-05-10T16:30:56;24;24;
32503;PMS5003;18953;45.930;13.640;2023-05-10T16:36:12;25;25;
32503;PMS5003;18953;45.930;13.640;2023-05-10T16:41:31;22;21;
32503;PMS5003;18953;45.930;13.640;2023-05-10T16:46:45;22;22;
32503;PMS5003;18953;45.930;13.640;2023-05-10T16:52:01;27;23;
32503;PMS5003;18953;45.930;13.640;2023-05-10T16:57:18;25;23;
32503;PMS5003;18953;45.930;13.640;2023-05-10T17:02:34;23;23;
32503;PMS5003;18953;45.930;13.640;2023-05-10T17:07:51;34;31;
32503;PMS5003;18953;45.930;13.640;2023-05-10T17:13:07;24;23;
32503;PMS5003;18953;45.930;13.640;2023-05-10T17:18:24;25;25;
32503;PMS5003;18953;45.930;13.640;2023-05-10T17:23:40;24;22;
32503;PMS5003;18953;45.930;13.640;2023-05-10T17:28:57;25;25;
32503;PMS5003;18953;45.930;13.640;2023-05-10T17:34:13;28;25;
32503;PMS5003;18953;45.930;13.640;2023-05-10T17:39:29;29;26;
32503;PMS5003;18953;45.930;13.640;2023-05-10T17:44:46;25;24;
32503;PMS5003;18953;45.930;13.640;2023-05-10T17:50:02;32;30;
32503;PMS5003;18953;45.930;13.640;2023-05-10T17:55:19;27;26;
32503;PMS5003;18953;45.930;13.640;2023-05-10T18:00:35;32;31;
32503;PMS5003;18953;45.930;13.640;2023-05-10T18:05:51;35;31;
32503;PMS5003;18953;45.930;13.640;2023-05-10T18:11:08;28;25;
32503;PMS5003;18953;45.930;13.640;2023-05-10T18:16:24;26;23;
32503;PMS5003;18953;45.930;13.640;2023-05-10T18:21:40;19;18;
32503;PMS5003;18953;45.930;13.640;2023-05-10T18:26:57;21;19;
32503;PMS5003;18953;45.930;13.640;2023-05-10T18:32:13;21;20;
32503;PMS5003;18953;45.930;13.640;2023-05-10T18:37:30;21;20;
32503;PMS5003;18953;45.930;13.640;2023-05-10T18:42:46;19;17;
32503;PMS5003;18953;45.930;13.640;2023-05-10T18:48:02;16;16;
32503;PMS5003;18953;45.930;13.640;2023-05-10T18:53:19;19;18;
32503;PMS5003;18953;45.930;13.640;2023-05-10T18:58:35;21;20;
32503;PMS5003;18953;45.930;13.640;2023-05-10T19:03:51;24;23;
32503;PMS5003;18953;45.930;13.640;2023-05-10T19:09:08;30;28;
32503;PMS5003;18953;45.930;13.640;2023-05-10T19:14:24;25;21;
32503;PMS5003;18953;45.930;13.640;2023-05-10T19:19:40;20;20;
32503;PMS5003;18953;45.930;13.640;2023-05-10T19:24:57;24;24;
32503;PMS5003;18953;45.930;13.640;2023-05-10T19:30:13;27;25;
32503;PMS5003;18953;45.930;13.640;2023-05-10T19:35:30;26;24;
32503;PMS5003;18953;45.930;13.640;2023-05-10T19:40:46;21;19;
32503;PMS5003;18953;45.930;13.640;2023-05-10T19:46:03;24;22;
32503;PMS5003;18953;45.930;13.640;2023-05-10T19:51:19;25;23;
32503;PMS5003;18953;45.930;13.640;2023-05-10T19:56:35;36;30;
32503;PMS5003;18953;45.930;13.640;2023-05-10T20:01:52;27;26;
32503;PMS5003;18953;45.930;13.640;2023-05-10T20:07:08;31;28;
32503;PMS5003;18953;45.930;13.640;2023-05-10T20:12:24;22;21;
32503;PMS5003;18953;45.930;13.640;2023-05-10T20:17:41;23;21;
32503;PMS5003;18953;45.930;13.640;2023-05-10T20:22:57;17;17;
32503;PMS5003;18953;45.930;13.640;2023-05-10T20:28:13;19;18;
32503;PMS5003;18953;45.930;13.640;2023-05-10T20:33:30;29;25;
32503;PMS5003;18953;45.930;13.640;2023-05-10T20:38:46;27;23;
32503;PMS5003;18953;45.930;13.640;2023-05-10T20:44:03;24;22;
32503;PMS5003;18953;45.930;13.640;2023-05-10T20:49:19;25;22;
32503;PMS5003;18953;45.930;13.640;2023-05-10T20:54:35;16;16;
32503;PMS5003;18953;45.930;13.640;2023-05-10T20:59:52;12;10;
32503;PMS5003;18953;45.930;13.640;2023-05-10T21:05:08;21;18;
32503;PMS5003;18953;45.930;13.640;2023-05-10T21:10:24;25;23;
32503;PMS5003;18953;45.930;13.640;2023-05-10T21:15:41;18;17;
32503;PMS5003;18953;45.930;13.640;2023-05-10T21:20:57;15;14;
32503;PMS5003;18953;45.930;13.640;2023-05-10T21:26:14;18;16;
32503;PMS5003;18953;45.930;13.640;2023-05-10T21:31:30;17;16;
32503;PMS5003;18953;45.930;13.640;2023-05-10T21:36:46;22;22;
32503;PMS5003;18953;45.930;13.640;2023-05-10T21:42:03;25;24;
32503;PMS5003;18953;45.930;13.640;2023-05-10T21:47:19;26;26;
32503;PMS5003;18953;45.930;13.640;2023-05-10T21:52:36;34;29;
32503;PMS5003;18953;45.930;13.640;2023-05-10T21:57:52;25;22;
32503;PMS5003;18953;45.930;13.640;2023-05-10T22:03:08;14;14;
32503;PMS5003;18953;45.930;13.640;2023-05-10T22:08:25;16;14;
32503;PMS5003;18953;45.930;13.640;2023-05-10T22:13:41;13;13;
32503;PMS5003;18953;45.930;13.640;2023-05-10T22:18:58;10;10;
32503;PMS5003;18953;45.930;13.640;2023-05-10T22:24:14;14;13;
32503;PMS5003;18953;45.930;13.640;2023-05-10T22:29:30;14;12;
32503;PMS5003;18953;45.930;13.640;2023-05-10T22:34:47;16;15;
32503;PMS5003;18953;45.930;13.640;2023-05-10T22:40:04;13;11;
32503;PMS5003;18953;45.930;13.640;2023-05-10T22:45:20;11;11;
32503;PMS5003;18953;45.930;13.640;2023-05-10T22:50:36;10;9;
32503;PMS5003;18953;45.930;13.640;2023-05-10T22:55:52;9;8;
32503;PMS5003;18953;45.930;13.640;2023-05-10T23:01:09;8;8;
32503;PMS5003;18953;45.930;13.640;2023-05-10T23:06:25;10;9;
32503;PMS5003;18953;45.930;13.640;2023-05-10T23:11:41;8;8;
32503;PMS5003;18953;45.930;13.640;2023-05-10T23:16:58;8;8;
32503;PMS5003;18953;45.930;13.640;2023-05-10T23:22:14;8;7;
32503;PMS5003;18953;45.930;13.640;2023-05-10T23:27:30;9;8;
32503;PMS5003;18953;45.930;13.640;2023-05-10T23:32:47;9;8;
32503;PMS5003;18953;45.930;13.640;2023-05-10T23:38:03;8;8;
32503;PMS5003;18953;45.930;13.640;2023-05-10T23:43:19;6;5;
32503;PMS5003;18953;45.930;13.640;2023-05-10T23:48:36;7;7;
32503;PMS5003;18953;45.930;13.640;2023-05-10T23:53:52;6;6;
32503;PMS5003;18953;45.930;13.640;2023-05-10T23:59:09;8;6;
